Portada
METAR-TAF:

METAR-TAF

Aeropuertos :

Skövde, Suecia

latitud: 58-27N, longitud: 013-58E, altitud: 98 m

Observación

El informe se hizo hace 28 minutos, a las 21:50 UTC
Viento 5 kt del norte-noroeste
Temperatura 6°C
Humedad 93%
Presión 1038 hPa
Visibilidad 10 km o más

METAR: ESGR 172150Z AUTO 33005KT 9999 OVC010/// 06/05 Q1038

Hora: 23:18 (22:18 UTC)


TAF: falta

Observaciones y pronósticos meteorológicos de más de 4000 aeropuertos (mensajes METAR y TAF).

Los puntos amarillos y rojos representan las estaciones disponibles.

Ponga el ratón en el punto deseado para ver el nombre de la estación.

Haga clic para ver las observaciones y los pronósticos meteorológicos.

Para cambiar el mapa : haga clic en los botones verdes con una cruz de color negro para hacer un zoom, en el botón verde con un guión para alejar o en las flechas verdes para mapas adyacentes.


METAR-TAF: